TAP1685 LPPT-LPMA
Flight info
| Callsign | TAP1685 |
|---|---|
| Flight time | 1h 29m |
| Altitude | 35000 |
| Route | ULVOT DCT GALPA DCT RAKUN |
| Aircraft | A321/M-SDE3FGHIRWY/LB1 |
Departure
| Time | 2026-05-04 13:56 |
|---|---|
| Airport | Lisbon Humberto Delgado Airport (LPPT) |
Arrival
| Time | 2026-05-04 15:25 |
|---|---|
| Airport | Cristiano Ronaldo International Airport (LPMA) |
| Time | Latitude | Longitude | Altitude | Speed | Heading |
|---|---|---|---|---|---|
| 2026-05-04 13:19 | 38.77128 | -9.13687 | 351 ft | 0 kts | 168° |
| 2026-05-04 13:46 | 38.77139 | -9.13690 | 359 ft | 4 kts | 171° |
| 2026-05-04 13:46 | 38.77166 | -9.13692 | 358 ft | 4 kts | 188° |
| 2026-05-04 13:46 | 38.77190 | -9.13682 | 360 ft | 4 kts | 225° |
| 2026-05-04 13:47 | 38.77198 | -9.13667 | 359 ft | 1 kts | 258° |
| 2026-05-04 13:49 | 38.77192 | -9.13702 | 359 ft | 8 kts | 258° |
| 2026-05-04 13:50 | 38.77177 | -9.13799 | 355 ft | 14 kts | 258° |
| 2026-05-04 13:50 | 38.77141 | -9.13892 | 356 ft | 11 kts | 217° |
| 2026-05-04 13:50 | 38.77070 | -9.13932 | 357 ft | 11 kts | 202° |
| 2026-05-04 13:50 | 38.76994 | -9.13973 | 355 ft | 13 kts | 203° |
| 2026-05-04 13:51 | 38.76907 | -9.14019 | 353 ft | 14 kts | 202° |
| 2026-05-04 13:51 | 38.76811 | -9.14070 | 349 ft | 15 kts | 202° |
| 2026-05-04 13:51 | 38.76712 | -9.14121 | 344 ft | 15 kts | 202° |
| 2026-05-04 13:51 | 38.76639 | -9.14160 | 348 ft | 0 kts | 202° |
| 2026-05-04 13:52 | 38.76636 | -9.14162 | 337 ft | 3 kts | 202° |
| 2026-05-04 13:52 | 38.76601 | -9.14187 | 338 ft | 6 kts | 223° |
| 2026-05-04 13:53 | 38.76595 | -9.14247 | 337 ft | 9 kts | 283° |
| 2026-05-04 13:53 | 38.76620 | -9.14331 | 335 ft | 11 kts | 291° |
| 2026-05-04 13:53 | 38.76657 | -9.14378 | 336 ft | 6 kts | 354° |
| 2026-05-04 13:54 | 38.76675 | -9.14372 | 332 ft | 0 kts | 21° |
| 2026-05-04 13:55 | 38.77258 | -9.14064 | 362 ft | 106 kts | 22° |
| 2026-05-04 13:55 | 38.78095 | -9.13616 | 370 ft | 153 kts | 23° |
| 2026-05-04 13:56 | 38.79186 | -9.13029 | 554 ft | 176 kts | 18° |
| 2026-05-04 13:56 | 38.80310 | -9.12420 | 1238 ft | 176 kts | 16° |
| 2026-05-04 13:56 | 38.82600 | -9.10918 | 1900 ft | 208 kts | 28° |
| 2026-05-04 13:57 | 38.83902 | -9.09883 | 2023 ft | 235 kts | 26° |
| 2026-05-04 13:57 | 38.85365 | -9.08765 | 2484 ft | 250 kts | 27° |
| 2026-05-04 13:58 | 38.89210 | -9.04147 | 4805 ft | 275 kts | 75° |
| 2026-05-04 13:58 | 38.88522 | -8.99325 | 6293 ft | 289 kts | 126° |
| 2026-05-04 13:58 | 38.87033 | -8.97630 | 7015 ft | 289 kts | 155° |
| 2026-05-04 13:59 | 38.85099 | -8.97010 | 7633 ft | 289 kts | 184° |
| 2026-05-04 13:59 | 38.83175 | -8.97592 | 8292 ft | 284 kts | 212° |
| 2026-05-04 13:59 | 38.80362 | -9.01044 | 9642 ft | 283 kts | 231° |
| 2026-05-04 14:00 | 38.79051 | -9.02946 | 10293 ft | 286 kts | 232° |
| 2026-05-04 14:00 | 38.76224 | -9.07038 | 10609 ft | 327 kts | 231° |
| 2026-05-04 14:00 | 38.74677 | -9.09265 | 10857 ft | 340 kts | 231° |
| 2026-05-04 14:01 | 38.73086 | -9.11541 | 11394 ft | 344 kts | 231° |
| 2026-05-04 14:01 | 38.71478 | -9.13829 | 12003 ft | 347 kts | 231° |
| 2026-05-04 14:01 | 38.68254 | -9.18400 | 13255 ft | 350 kts | 231° |
| 2026-05-04 14:02 | 38.66620 | -9.20718 | 13883 ft | 351 kts | 231° |
| 2026-05-04 14:02 | 38.64984 | -9.23050 | 14443 ft | 353 kts | 232° |
| 2026-05-04 14:02 | 38.63347 | -9.25395 | 14977 ft | 355 kts | 232° |
| 2026-05-04 14:02 | 38.61698 | -9.27753 | 15501 ft | 356 kts | 232° |
| 2026-05-04 14:03 | 38.60043 | -9.30116 | 16013 ft | 358 kts | 232° |
| 2026-05-04 14:03 | 38.58373 | -9.32492 | 16524 ft | 360 kts | 232° |
| 2026-05-04 14:03 | 38.56692 | -9.34878 | 17010 ft | 362 kts | 232° |
| 2026-05-04 14:03 | 38.55002 | -9.37275 | 17491 ft | 364 kts | 232° |
| 2026-05-04 14:04 | 38.51598 | -9.42107 | 18442 ft | 368 kts | 232° |
| 2026-05-04 14:04 | 38.49886 | -9.44541 | 18804 ft | 370 kts | 232° |
| 2026-05-04 14:04 | 38.48161 | -9.46985 | 19163 ft | 372 kts | 232° |
| 2026-05-04 14:05 | 38.44677 | -9.51905 | 19855 ft | 376 kts | 232° |
| 2026-05-04 14:05 | 38.42920 | -9.54388 | 20217 ft | 377 kts | 232° |
| 2026-05-04 14:05 | 38.41157 | -9.56879 | 20566 ft | 379 kts | 232° |
| 2026-05-04 14:06 | 38.39386 | -9.59376 | 20918 ft | 381 kts | 232° |
| 2026-05-04 14:06 | 38.37601 | -9.61886 | 21275 ft | 383 kts | 232° |
| 2026-05-04 14:06 | 38.35810 | -9.64406 | 21632 ft | 384 kts | 232° |
| 2026-05-04 14:06 | 38.34012 | -9.66934 | 21994 ft | 386 kts | 232° |
| 2026-05-04 14:07 | 38.32204 | -9.69473 | 22363 ft | 388 kts | 232° |
| 2026-05-04 14:07 | 38.30388 | -9.72022 | 22736 ft | 390 kts | 232° |
| 2026-05-04 14:07 | 38.28563 | -9.74585 | 23106 ft | 391 kts | 232° |
| 2026-05-04 14:07 | 38.26733 | -9.77158 | 23475 ft | 393 kts | 232° |
| 2026-05-04 14:08 | 38.24889 | -9.79744 | 23812 ft | 395 kts | 232° |
| 2026-05-04 14:08 | 38.23038 | -9.82337 | 24087 ft | 397 kts | 232° |
| 2026-05-04 14:08 | 38.21175 | -9.84942 | 24389 ft | 399 kts | 232° |
| 2026-05-04 14:08 | 38.19304 | -9.87555 | 24673 ft | 401 kts | 232° |
| 2026-05-04 14:09 | 38.15531 | -9.92812 | 25263 ft | 404 kts | 232° |
| 2026-05-04 14:09 | 38.13635 | -9.95451 | 25556 ft | 405 kts | 232° |
| 2026-05-04 14:10 | 38.09825 | -10.00762 | 26135 ft | 408 kts | 232° |
| 2026-05-04 14:10 | 38.07912 | -10.03430 | 26418 ft | 410 kts | 232° |
| 2026-05-04 14:10 | 38.05988 | -10.06109 | 26699 ft | 411 kts | 232° |
| 2026-05-04 14:10 | 38.04057 | -10.08790 | 26979 ft | 413 kts | 232° |
| 2026-05-04 14:11 | 38.02115 | -10.11481 | 27248 ft | 414 kts | 232° |
| 2026-05-04 14:11 | 37.98210 | -10.16887 | 27796 ft | 417 kts | 232° |
| 2026-05-04 14:11 | 37.96248 | -10.19602 | 28062 ft | 419 kts | 232° |
| 2026-05-04 14:12 | 37.94276 | -10.22330 | 28296 ft | 420 kts | 233° |
| 2026-05-04 14:12 | 37.92297 | -10.25067 | 28524 ft | 422 kts | 233° |
| 2026-05-04 14:12 | 37.88306 | -10.30568 | 28992 ft | 425 kts | 232° |
| 2026-05-04 14:13 | 37.86299 | -10.33326 | 29213 ft | 427 kts | 232° |
| 2026-05-04 14:13 | 37.84284 | -10.36096 | 29421 ft | 428 kts | 233° |
| 2026-05-04 14:13 | 37.82270 | -10.38870 | 29618 ft | 429 kts | 233° |
| 2026-05-04 14:13 | 37.80250 | -10.41651 | 29813 ft | 430 kts | 233° |
| 2026-05-04 14:14 | 37.78243 | -10.44405 | 29999 ft | 431 kts | 233° |
| 2026-05-04 14:14 | 37.74182 | -10.49963 | 30473 ft | 429 kts | 233° |
| 2026-05-04 14:14 | 37.72160 | -10.52730 | 30686 ft | 428 kts | 233° |
| 2026-05-04 14:15 | 37.68122 | -10.58255 | 31068 ft | 428 kts | 233° |
| 2026-05-04 14:15 | 37.64085 | -10.63770 | 31471 ft | 427 kts | 233° |
| 2026-05-04 14:16 | 37.60057 | -10.69267 | 31912 ft | 426 kts | 233° |
| 2026-05-04 14:16 | 37.58045 | -10.72005 | 32141 ft | 425 kts | 233° |
| 2026-05-04 14:17 | 37.54030 | -10.77462 | 32604 ft | 423 kts | 233° |
| 2026-05-04 14:17 | 37.52031 | -10.80175 | 32835 ft | 422 kts | 233° |
| 2026-05-04 14:17 | 37.48041 | -10.85586 | 33290 ft | 421 kts | 233° |
| 2026-05-04 14:18 | 37.46047 | -10.88281 | 33533 ft | 420 kts | 233° |
| 2026-05-04 14:18 | 37.42074 | -10.93643 | 33950 ft | 418 kts | 233° |
| 2026-05-04 14:19 | 37.38126 | -10.98987 | 34343 ft | 416 kts | 233° |
| 2026-05-04 14:19 | 37.36159 | -11.01649 | 34519 ft | 415 kts | 233° |
| 2026-05-04 14:19 | 37.34193 | -11.04304 | 34689 ft | 415 kts | 233° |
| 2026-05-04 14:19 | 37.32224 | -11.06954 | 34861 ft | 415 kts | 233° |
| 2026-05-04 14:20 | 37.30254 | -11.09601 | 35033 ft | 414 kts | 232° |
| 2026-05-04 14:20 | 37.26330 | -11.14867 | 35154 ft | 411 kts | 233° |
| 2026-05-04 14:21 | 37.20492 | -11.22692 | 35151 ft | 409 kts | 232° |
| 2026-05-04 14:21 | 37.16602 | -11.27894 | 35136 ft | 408 kts | 232° |
| 2026-05-04 14:22 | 37.12717 | -11.33084 | 35144 ft | 408 kts | 232° |
| 2026-05-04 14:22 | 37.08858 | -11.38241 | 35155 ft | 409 kts | 232° |
| 2026-05-04 14:23 | 37.03009 | -11.46018 | 35156 ft | 409 kts | 232° |
| 2026-05-04 14:24 | 36.99108 | -11.51199 | 35159 ft | 409 kts | 232° |
| 2026-05-04 14:24 | 36.95208 | -11.56389 | 35162 ft | 409 kts | 232° |
| 2026-05-04 14:25 | 36.91301 | -11.61565 | 35166 ft | 409 kts | 232° |
| 2026-05-04 14:25 | 36.85431 | -11.69306 | 35157 ft | 409 kts | 231° |
| 2026-05-04 14:26 | 36.81522 | -11.74462 | 35160 ft | 409 kts | 231° |
| 2026-05-04 14:26 | 36.78272 | -11.78743 | 35165 ft | 409 kts | 231° |
| 2026-05-04 14:27 | 36.74365 | -11.83894 | 35167 ft | 409 kts | 231° |
| 2026-05-04 14:27 | 36.70448 | -11.89040 | 35169 ft | 409 kts | 231° |
| 2026-05-04 14:28 | 36.66523 | -11.94179 | 35170 ft | 409 kts | 231° |
| 2026-05-04 14:28 | 36.62601 | -11.99313 | 35148 ft | 409 kts | 231° |
| 2026-05-04 14:29 | 36.54747 | -12.09555 | 35160 ft | 409 kts | 231° |
| 2026-05-04 14:30 | 36.50823 | -12.14675 | 35165 ft | 409 kts | 231° |
| 2026-05-04 14:31 | 36.44939 | -12.22338 | 35165 ft | 408 kts | 231° |
| 2026-05-04 14:32 | 36.37080 | -12.32515 | 35164 ft | 408 kts | 231° |
| 2026-05-04 14:32 | 36.33154 | -12.37588 | 35149 ft | 407 kts | 232° |
| 2026-05-04 14:33 | 36.29238 | -12.42635 | 35165 ft | 405 kts | 232° |
| 2026-05-04 14:33 | 36.25345 | -12.47670 | 35181 ft | 404 kts | 232° |
| 2026-05-04 14:34 | 36.21454 | -12.52693 | 35177 ft | 403 kts | 232° |
| 2026-05-04 14:34 | 36.17565 | -12.57693 | 35177 ft | 403 kts | 231° |
| 2026-05-04 14:35 | 36.13675 | -12.62678 | 35178 ft | 402 kts | 231° |
| 2026-05-04 14:35 | 36.09810 | -12.67627 | 35178 ft | 402 kts | 231° |
| 2026-05-04 14:36 | 36.05896 | -12.72641 | 35140 ft | 402 kts | 232° |
| 2026-05-04 14:36 | 36.02039 | -12.77578 | 35159 ft | 402 kts | 232° |
| 2026-05-04 14:37 | 35.98157 | -12.82532 | 35167 ft | 401 kts | 231° |
| 2026-05-04 14:37 | 35.94273 | -12.87477 | 35172 ft | 401 kts | 231° |
| 2026-05-04 14:38 | 35.90390 | -12.92408 | 35175 ft | 401 kts | 231° |
| 2026-05-04 14:38 | 35.86510 | -12.97336 | 35175 ft | 400 kts | 231° |
| 2026-05-04 14:39 | 35.82627 | -13.02259 | 35170 ft | 400 kts | 231° |
| 2026-05-04 14:39 | 35.78748 | -13.07169 | 35175 ft | 400 kts | 231° |
| 2026-05-04 14:40 | 35.72928 | -13.14534 | 35151 ft | 400 kts | 231° |
| 2026-05-04 14:40 | 35.69039 | -13.19443 | 35154 ft | 401 kts | 231° |
| 2026-05-04 14:41 | 35.65150 | -13.24355 | 35164 ft | 401 kts | 231° |
| 2026-05-04 14:42 | 35.57338 | -13.34159 | 35174 ft | 401 kts | 231° |
| 2026-05-04 14:42 | 35.53428 | -13.39047 | 35172 ft | 401 kts | 231° |
| 2026-05-04 14:43 | 35.49532 | -13.43944 | 35169 ft | 401 kts | 231° |
| 2026-05-04 14:43 | 35.45653 | -13.48806 | 35160 ft | 401 kts | 231° |
| 2026-05-04 14:44 | 35.41743 | -13.53682 | 35145 ft | 401 kts | 230° |
| 2026-05-04 14:44 | 35.37828 | -13.58563 | 35150 ft | 401 kts | 230° |
| 2026-05-04 14:45 | 35.33915 | -13.63438 | 35158 ft | 401 kts | 230° |
| 2026-05-04 14:45 | 35.29995 | -13.68309 | 35162 ft | 402 kts | 230° |
| 2026-05-04 14:46 | 35.26072 | -13.73180 | 35167 ft | 402 kts | 230° |
| 2026-05-04 14:46 | 35.22148 | -13.78046 | 35166 ft | 402 kts | 230° |
| 2026-05-04 14:47 | 35.18214 | -13.82908 | 35177 ft | 402 kts | 230° |
| 2026-05-04 14:47 | 35.14280 | -13.87769 | 35169 ft | 402 kts | 230° |
| 2026-05-04 14:48 | 35.10345 | -13.92626 | 35168 ft | 402 kts | 230° |
| 2026-05-04 14:48 | 35.06412 | -13.97477 | 35170 ft | 402 kts | 230° |
| 2026-05-04 14:49 | 35.02469 | -14.02327 | 35178 ft | 402 kts | 230° |
| 2026-05-04 14:49 | 34.98528 | -14.07175 | 35175 ft | 403 kts | 230° |
| 2026-05-04 14:50 | 34.94580 | -14.12022 | 35180 ft | 403 kts | 230° |
| 2026-05-04 14:50 | 34.90651 | -14.16834 | 35153 ft | 403 kts | 230° |
| 2026-05-04 14:51 | 34.86699 | -14.21667 | 35169 ft | 402 kts | 230° |
| 2026-05-04 14:51 | 34.82751 | -14.26489 | 35179 ft | 402 kts | 230° |
| 2026-05-04 14:52 | 34.78811 | -14.31302 | 35183 ft | 401 kts | 230° |
| 2026-05-04 14:52 | 34.74873 | -14.36102 | 35185 ft | 401 kts | 230° |
| 2026-05-04 14:53 | 34.70929 | -14.40888 | 35182 ft | 400 kts | 229° |
| 2026-05-04 14:53 | 34.66995 | -14.45664 | 35177 ft | 400 kts | 229° |
| 2026-05-04 14:54 | 34.63063 | -14.50441 | 35179 ft | 400 kts | 230° |
| 2026-05-04 14:54 | 34.59123 | -14.55218 | 35156 ft | 400 kts | 229° |
| 2026-05-04 14:55 | 34.55178 | -14.59988 | 35155 ft | 400 kts | 228° |
| 2026-05-04 14:55 | 34.51253 | -14.64724 | 35162 ft | 400 kts | 228° |
| 2026-05-04 14:56 | 34.47307 | -14.69483 | 35167 ft | 400 kts | 228° |
| 2026-05-04 14:56 | 34.43357 | -14.74234 | 35165 ft | 400 kts | 228° |
| 2026-05-04 14:57 | 34.39414 | -14.78984 | 35165 ft | 400 kts | 228° |
| 2026-05-04 14:57 | 34.35471 | -14.83721 | 35164 ft | 399 kts | 228° |
| 2026-05-04 14:58 | 34.31528 | -14.88454 | 35141 ft | 399 kts | 227° |
| 2026-05-04 14:58 | 34.27577 | -14.93178 | 35148 ft | 400 kts | 227° |
| 2026-05-04 14:59 | 34.23604 | -14.97900 | 35137 ft | 401 kts | 227° |
| 2026-05-04 14:59 | 34.19630 | -15.02635 | 34976 ft | 402 kts | 227° |
| 2026-05-04 15:00 | 34.17632 | -15.05026 | 34731 ft | 408 kts | 227° |
| 2026-05-04 15:00 | 34.15627 | -15.07428 | 33938 ft | 415 kts | 227° |
| 2026-05-04 15:00 | 34.13561 | -15.09892 | 33009 ft | 417 kts | 227° |
| 2026-05-04 15:01 | 34.09397 | -15.14840 | 31112 ft | 423 kts | 227° |
| 2026-05-04 15:01 | 34.07311 | -15.17313 | 30541 ft | 418 kts | 227° |
| 2026-05-04 15:01 | 34.05229 | -15.19779 | 29627 ft | 420 kts | 228° |
| 2026-05-04 15:01 | 34.03142 | -15.22252 | 28727 ft | 421 kts | 227° |
| 2026-05-04 15:02 | 34.01071 | -15.24708 | 28193 ft | 414 kts | 227° |
| 2026-05-04 15:02 | 33.99029 | -15.27131 | 27531 ft | 411 kts | 227° |
| 2026-05-04 15:02 | 33.96998 | -15.29540 | 26841 ft | 409 kts | 227° |
| 2026-05-04 15:02 | 33.94973 | -15.31933 | 26195 ft | 406 kts | 227° |
| 2026-05-04 15:03 | 33.92968 | -15.34298 | 25567 ft | 403 kts | 227° |
| 2026-05-04 15:03 | 33.90972 | -15.36654 | 24865 ft | 402 kts | 227° |
| 2026-05-04 15:03 | 33.88977 | -15.39010 | 24169 ft | 401 kts | 227° |
| 2026-05-04 15:03 | 33.86989 | -15.41358 | 23502 ft | 399 kts | 227° |
| 2026-05-04 15:04 | 33.85010 | -15.43693 | 22771 ft | 397 kts | 227° |
| 2026-05-04 15:04 | 33.83048 | -15.46003 | 22055 ft | 393 kts | 226° |
| 2026-05-04 15:04 | 33.81102 | -15.48293 | 21350 ft | 390 kts | 226° |
| 2026-05-04 15:04 | 33.79189 | -15.50540 | 20645 ft | 387 kts | 226° |
| 2026-05-04 15:05 | 33.77271 | -15.52793 | 19962 ft | 384 kts | 226° |
| 2026-05-04 15:05 | 33.75370 | -15.55029 | 19302 ft | 381 kts | 226° |
| 2026-05-04 15:05 | 33.73480 | -15.57252 | 18656 ft | 379 kts | 226° |
| 2026-05-04 15:05 | 33.71606 | -15.59455 | 17999 ft | 376 kts | 226° |
| 2026-05-04 15:06 | 33.69744 | -15.61644 | 17333 ft | 373 kts | 226° |
| 2026-05-04 15:06 | 33.67895 | -15.63811 | 16706 ft | 370 kts | 226° |
| 2026-05-04 15:06 | 33.66058 | -15.65961 | 16078 ft | 367 kts | 226° |
| 2026-05-04 15:07 | 33.62423 | -15.70211 | 14880 ft | 363 kts | 226° |
| 2026-05-04 15:07 | 33.60626 | -15.72311 | 14311 ft | 360 kts | 225° |
| 2026-05-04 15:07 | 33.58832 | -15.74408 | 13688 ft | 360 kts | 225° |
| 2026-05-04 15:07 | 33.57045 | -15.76498 | 13073 ft | 357 kts | 225° |
| 2026-05-04 15:08 | 33.55274 | -15.78567 | 12543 ft | 353 kts | 225° |
| 2026-05-04 15:08 | 33.53527 | -15.80604 | 11980 ft | 349 kts | 225° |
| 2026-05-04 15:08 | 33.51790 | -15.82627 | 11442 ft | 346 kts | 225° |
| 2026-05-04 15:08 | 33.50076 | -15.84619 | 10994 ft | 340 kts | 225° |
| 2026-05-04 15:09 | 33.48417 | -15.86542 | 10857 ft | 324 kts | 225° |
| 2026-05-04 15:09 | 33.46835 | -15.88377 | 10732 ft | 309 kts | 225° |
| 2026-05-04 15:09 | 33.45330 | -15.90130 | 10610 ft | 295 kts | 225° |
| 2026-05-04 15:10 | 33.42516 | -15.93403 | 10147 ft | 279 kts | 225° |
| 2026-05-04 15:10 | 33.41124 | -15.95019 | 9700 ft | 278 kts | 225° |
| 2026-05-04 15:10 | 33.38358 | -15.98234 | 8892 ft | 275 kts | 225° |
| 2026-05-04 15:11 | 33.36990 | -15.99825 | 8489 ft | 273 kts | 225° |
| 2026-05-04 15:11 | 33.35628 | -16.01407 | 8041 ft | 273 kts | 224° |
| 2026-05-04 15:11 | 33.34268 | -16.02979 | 7592 ft | 272 kts | 224° |
| 2026-05-04 15:11 | 33.32907 | -16.04553 | 7184 ft | 271 kts | 224° |
| 2026-05-04 15:12 | 33.31558 | -16.06115 | 6960 ft | 270 kts | 224° |
| 2026-05-04 15:12 | 33.30213 | -16.07675 | 6737 ft | 269 kts | 224° |
| 2026-05-04 15:12 | 33.28866 | -16.09236 | 6525 ft | 269 kts | 224° |
| 2026-05-04 15:12 | 33.27517 | -16.10794 | 6298 ft | 270 kts | 224° |
| 2026-05-04 15:13 | 33.26180 | -16.12366 | 6071 ft | 268 kts | 224° |
| 2026-05-04 15:13 | 33.24874 | -16.13953 | 5842 ft | 267 kts | 225° |
| 2026-05-04 15:13 | 33.23576 | -16.15533 | 5616 ft | 266 kts | 225° |
| 2026-05-04 15:13 | 33.22274 | -16.17103 | 5391 ft | 266 kts | 224° |
| 2026-05-04 15:14 | 33.21406 | -16.18136 | 5244 ft | 266 kts | 224° |
| 2026-05-04 15:14 | 33.19646 | -16.20208 | 4947 ft | 264 kts | 223° |
| 2026-05-04 15:14 | 33.18349 | -16.21719 | 4722 ft | 263 kts | 223° |
| 2026-05-04 15:14 | 33.17044 | -16.23239 | 4497 ft | 262 kts | 223° |
| 2026-05-04 15:15 | 33.15740 | -16.24755 | 4374 ft | 262 kts | 223° |
| 2026-05-04 15:15 | 33.14434 | -16.26272 | 4279 ft | 263 kts | 223° |
| 2026-05-04 15:15 | 33.13126 | -16.27790 | 4182 ft | 261 kts | 223° |
| 2026-05-04 15:16 | 33.10532 | -16.30787 | 3984 ft | 258 kts | 223° |
| 2026-05-04 15:16 | 33.09661 | -16.31794 | 3913 ft | 258 kts | 223° |
| 2026-05-04 15:16 | 33.07103 | -16.34743 | 3724 ft | 258 kts | 223° |
| 2026-05-04 15:17 | 33.05796 | -16.36249 | 3621 ft | 259 kts | 223° |
| 2026-05-04 15:17 | 33.03217 | -16.39230 | 3406 ft | 258 kts | 223° |
| 2026-05-04 15:17 | 33.01945 | -16.40701 | 3307 ft | 258 kts | 223° |
| 2026-05-04 15:18 | 33.00656 | -16.42189 | 3209 ft | 258 kts | 223° |
| 2026-05-04 15:18 | 32.99366 | -16.43674 | 3099 ft | 258 kts | 223° |
| 2026-05-04 15:18 | 32.98079 | -16.45156 | 3014 ft | 257 kts | 223° |
| 2026-05-04 15:19 | 32.95510 | -16.48115 | 3020 ft | 257 kts | 223° |
| 2026-05-04 15:19 | 32.94224 | -16.49594 | 3016 ft | 257 kts | 223° |
| 2026-05-04 15:19 | 32.91652 | -16.52555 | 3019 ft | 257 kts | 223° |
| 2026-05-04 15:20 | 32.90368 | -16.54031 | 3020 ft | 257 kts | 223° |
| 2026-05-04 15:20 | 32.89083 | -16.55506 | 3019 ft | 257 kts | 223° |
| 2026-05-04 15:20 | 32.87797 | -16.56982 | 3018 ft | 257 kts | 223° |
| 2026-05-04 15:20 | 32.86509 | -16.58460 | 3017 ft | 257 kts | 223° |
| 2026-05-04 15:21 | 32.85219 | -16.59928 | 3014 ft | 257 kts | 223° |
| 2026-05-04 15:21 | 32.83848 | -16.61273 | 3012 ft | 255 kts | 205° |
| 2026-05-04 15:21 | 32.80635 | -16.63049 | 3022 ft | 254 kts | 210° |
| 2026-05-04 15:22 | 32.79272 | -16.64374 | 2772 ft | 252 kts | 225° |
| 2026-05-04 15:22 | 32.78095 | -16.65862 | 2489 ft | 240 kts | 227° |
| 2026-05-04 15:22 | 32.76060 | -16.68642 | 1734 ft | 212 kts | 228° |
| 2026-05-04 15:23 | 32.75141 | -16.69925 | 1391 ft | 190 kts | 229° |
| 2026-05-04 15:23 | 32.74415 | -16.71122 | 1210 ft | 169 kts | 235° |
| 2026-05-04 15:23 | 32.73833 | -16.72243 | 1088 ft | 152 kts | 237° |
| 2026-05-04 15:23 | 32.73276 | -16.73256 | 947 ft | 146 kts | 232° |
| 2026-05-04 15:24 | 32.71942 | -16.75026 | 557 ft | 144 kts | 220° |
| 2026-05-04 15:24 | 32.70497 | -16.76616 | 219 ft | 141 kts | 223° |
| 2026-05-04 15:25 | 32.69857 | -16.77362 | 192 ft | 99 kts | 224° |
| 2026-05-04 15:25 | 32.69522 | -16.77748 | 174 ft | 56 kts | 224° |
| 2026-05-04 15:25 | 32.69350 | -16.77948 | 169 ft | 12 kts | 220° |
| 2026-05-04 15:26 | 32.69293 | -16.77889 | 169 ft | 0 kts | 100° |
| 2026-05-04 15:26 | 32.69293 | -16.77879 | 169 ft | 5 kts | 94° |
| 2026-05-04 15:26 | 32.69330 | -16.77803 | 169 ft | 5 kts | 44° |
| 2026-05-04 15:27 | 32.69343 | -16.77780 | 169 ft | 2 kts | 78° |
| 2026-05-04 15:27 | 32.69324 | -16.77745 | 169 ft | 2 kts | 136° |
| 2026-05-04 15:28 | 32.69310 | -16.77728 | 169 ft | 1 kts | 136° |
| 2026-05-04 15:28 | 32.69309 | -16.77728 | 169 ft | 0 kts | 136° |